ADDS METAR Data INFO
IDs: Format: Raw Decoded Include TAF

Data at: 0105 UTC 24 Jun 2018

KLIT 240053Z 04005KT 10SM FEW050 29/22 A2980 RMK AO2 SLP091 TCU DSNT SE-S T02890222 $
KLIT 232353Z 17004KT 10SM FEW250 31/22 A2980 RMK AO2 SLP089 T03060217 10311 20278 56007 $
KLIT 232253Z 17004KT 10SM FEW050 FEW150 SCT250 31/22 A2980 RMK AO2 SLP090 TCU DSNT SE T03060217 $
KLIT 232153Z 23005KT 10SM FEW050 SCT120 BKN250 31/22 A2981 RMK AO2 SLP092 TCU DSNT E AND SE T03060217 $
KLIT 232053Z 27006KT 10SM FEW040 SCT120 BKN250 30/21 A2982 RMK AO2 SLP096 T03000211 53001 $
KLIT 231953Z 21008KT 190V250 10SM FEW040 SCT120 BKN250 29/22 A2982 RMK AO2 SLP098 T02940217 $
KLIT 231853Z 18009KT 150V210 10SM FEW035 SCT100 BKN250 29/22 A2979 RMK AO2 SLP088 T02890222 $
KLIT 231753Z VRB04KT 10SM FEW035 SCT100 BKN250 28/22 A2982 RMK AO2 SLP096 T02830217 10283 20211 56016 $
KLIT 231653Z 31008KT 10SM FEW035 SCT100 BKN250 28/22 A2985 RMK AO2 SLP106 T02780222 $
KLIT 231553Z 22009G17KT 10SM FEW030 BKN130 BKN250 26/21 A2982 RMK AO2 SLP097 T02610211 $
KLIT 231453Z 22008KT 10SM FEW025 SCT130 BKN250 24/21 A2986 RMK AO2 SLP112 T02440211 51027 $
KLIT 231353Z 30005KT 10SM FEW020 SCT120 BKN250 23/21 A2985 RMK AO2 SLP108 T02330211 $
KLIT 231253Z 20004KT 10SM FEW050 SCT100 BKN250 22/21 A2980 RMK AO2 SLP089 T02170211 $
KLIT 231153Z 07006KT 10SM FEW005 SCT060 OVC100 21/21 A2978 RMK AO2 PK WND 32028/1054 RAE10B29E51 TSE02 SLP084 OCNL LTGICCA DSNT E CB DSNT E MOV E P0000 60039 70039 T02110206 10244 20211 50002 $
KLIT 231103Z 34015G28KT 10SM -RA FEW005 BKN040 OVC100 22/21 A2986 RMK AO2 PK WND 32028/1054 LTG DSNT ALQDS TSE02 OCNL LTGICCA DSNT NE-S CB DSNT NE-S MOV E P0000 T02170211 $
KLIT 231053Z 31017G30KT 5SM -TSRA BR FEW005 BKN040CB OVC100 22/21 A2987 RMK AO2 PK WND 29043/1032 LTG DSNT ALQDS RAE11B19 TSE11B19 SLP114 FRQ LTGICCACG E-NW TS E-NW MOV E P0025 T02170211 $
KLIT 231050Z 31016G30KT 5SM -TSRA BR FEW005 BKN040CB OVC100 22/21 A2987 RMK AO2 PK WND 29043/1032 LTG DSNT ALQDS RAE11B19 TSE11B19 FRQ LTGICCACG E-NW TS E-NW MOV E P0025 $
KLIT 231036Z COR 30026G43KT 2SM -TSRA BR SQ FEW005 BKN040CB OVC100 22/21 A2987 RMK AO2 PK WND 29043/1032 LTG DSNT ALQDS RAE11B19 TSE11B19 FRQ LTGICCACG S-NW TS S-NW MOV E P0002 T02170211 $
KLIT 231030Z COR 29026G41KT 10SM -TSRA SQ FEW005 BKN040CB OVC100 24/22 A2986 RMK AO2 PK WND 28041/1029 LTG DSNT ALQDS RAE11B19 TSE11B19 PRESRR FRQT LTGICCACG S-NW TS S-NW MOV E P0000 T02390217 $
KLIT 231019Z 33003KT 10SM -TSRA FEW005 BKN040CB OVC100 24/23 A2977 RMK AO2 LTG DSNT SW-N RAE11B19 TSE11B19 FRQT LTGICCACGS S-NW TS S-NW MOV E P0000 T02390233 $
KLIT 231011Z 33005KT 10SM SCT005 BKN040 OVC100 24/24 A2978 RMK AO2 LTG DSNT SW-N RAE11 TSE11 OCNL LTGICCA DSNT SE-W CB DSNT SE-W MOV E P0000 T02390239 $
KLIT 230953Z 32006KT 5SM -TSRA BKN005CB 24/24 A2978 RMK AO2 LTG DSNT SW-NW DZB33E38RAB38 TSB43 SLP084 OCNL LTGICCA SW-NW TS SW-NW MOV E P0014 T02390239 $
KLIT 230943Z COR 25008KT 5SM -TSRA BKN005CB 24/24 A2980 RMK AO2 LTG DSNT SW-NW DZB33E38RAB38 TSB43 OCNL LTGICCACG SW-NW TS SW-NW MOV E P0002 T02390239 $
KLIT 230939Z 26006KT 5SM -RA BKN005 24/24 A2979 RMK AO2 LTG DSNT SW-NW DZB33E38RAB38 OCNL LTGICCA DSNT W CB DSNT W MOV E P0000 T02390239 $
KLIT 230853Z 26005KT 7SM SCT005 24/24 A2977 RMK AO2 SLP081 T02390239 53009 $
KLIT 230847Z 29003KT 7SM SCT005 24/24 A2978 RMK AO2 $
KLIT 230753Z 25003KT 1SM BKN005 24/24 A2975 RMK AO2 SFC VIS 5 SLP074 T02440244 $
KLIT 230656Z COR 21005KT 1SM MIFG BKN005 23/23 A2975 RMK AO2 SFC VIS 7 MFIG BKN005 T02330233 $
KLIT 230653Z 20003KT 7SM MIFG BKN005 23/23 A2975 RMK AO2 SLP072 MIFG BKN005 T02330233
KLIT 230650Z 18003KT 8SM SCT005 23/23 A2975 RMK AO2
KLIT 230553Z 25005KT 10SM CLR 24/23 A2977 RMK AO2 SLP078 T02440228 10317 20239 403390211 50006
KLIT 230453Z 22006KT 10SM CLR 26/21 A2978 RMK AO2 SLP084 T02560211
KLIT 230353Z 21003KT 10SM CLR 26/19 A2978 RMK AO2 SLP082 T02610189
KLIT 230253Z 24003KT 10SM CLR 27/18 A2975 RMK AO2 SLP072 T02720178 53006
KLIT 230153Z 17005KT 10SM FEW070 28/18 A2973 RMK AO2 SLP066 T02780183
KLIT 230053Z 32005KT 10SM FEW060 FEW120 FEW250 30/17 A2972 RMK AO2 SLP063 TCU DSNT E-SE T03000172
KLIT 222353Z 34005KT 10SM FEW060 FEW250 32/17 A2973 RMK AO2 SLP066 TCU DSNT E-SE T03170172 10339 20311 55002
KLIT 222253Z 33010KT 10SM FEW060 SCT250 32/17 A2973 RMK AO2 SLP065 TCU DSNT E T03170172
KLIT 222153Z 33013KT 10SM FEW060 SCT250 32/19 A2974 RMK AO2 SLP068 T03220189
KLIT 222053Z 30016G20KT 10SM FEW055 FEW100 BKN250 33/16 A2973 RMK AO2 SLP068 T03280156 56019
KLIT 221953Z 30009G18KT 10SM FEW055 FEW100 BKN250 34/18 A2975 RMK AO2 SLP072 T03390178
KLIT 221853Z 28013G23KT 10SM SCT050 SCT100 BKN250 33/16 A2976 RMK AO2 SLP076 T03280161
KLIT 221753Z 22012G17KT 10SM FEW040 BKN250 31/18 A2979 RMK AO2 SLP087 T03110183 10317 20222 58008
KLIT 221653Z 26013G17KT 10SM FEW040 BKN250 29/18 A2981 RMK AO2 SLP092 T02940178
KLIT 221553Z 20007KT 10SM FEW035 BKN250 29/19 A2981 RMK AO2 SLP094 T02890189
KLIT 221453Z 21006KT 10SM SCT070 SCT250 28/19 A2982 RMK AO2 SLP096 T02780194 52007
KLIT 221353Z 25005KT 10SM SCT070 SCT250 26/19 A2981 RMK AO2 SLP093 T02560189